Latest Coastal Weather Observations for Innisfail Aero

IDQ60701

Issued at 5:42 pm EST Tuesday 26 May 2020 (issued every 10 minutes, with the page automatically refreshed every 10 minutes)

About coastal observations | Map of coastal stations | Coastal observations for QLD | Marine services | Other Formats
Station Details ID: 032197 Name: INNISFAIL AERODROME Lat: -17.56 Lon: 146.01 Height: 11.84 m
Data from the previous 72 hours. | See also: Recent months at Innisfail Aero
Date/Time
EST
Wind Sea
Height
m
Swell Vis
km
Cloud Weather Temp
°C
Press
hPa
Rain since
9am
mm
Dir  Spd
kts
Gust
kts
Height
m
Period
s
Dir
26/05:30pm SE 5 6 - - - - 10 Clear - 18.4 1017.7 0.0
26/05:00pm ESE 6 8 - - - - 10 - - 19.6 1017.4 0.0
26/04:30pm SE 9 11 - - - - 10 Partly cloudy - 20.7 1017.3 0.0
26/04:00pm SE 9 11 - - - - 10 Partly cloudy - 21.9 1017.1 0.0
26/03:30pm SE 11 14 - - - - 10 - - 22.4 1017.1 0.0
26/03:00pm SE 10 14 - - - - 10 Mostly clear - 22.7 1017.2 0.0
26/02:30pm SE 9 13 - - - - 10 Partly cloudy - 22.8 1017.3 0.0
26/02:00pm SE 9 13 - - - - 10 Partly cloudy - 22.1 1017.6 0.0
26/01:30pm SE 9 15 - - - - 10 Partly cloudy - 22.0 1017.9 0.0
26/01:00pm ESE 9 13 - - - - 10 Partly cloudy - 23.5 1018.1 0.0
26/12:30pm SE 9 13 - - - - 10 Partly cloudy - 22.2 1018.6 0.0
26/12:00pm SSE 7 14 - - - - 10 Mostly cloudy - 22.4 1019.1 0.0
26/11:30am ESE 6 10 - - - - 10 Partly cloudy - 22.7 1019.6 0.0
26/11:00am SE 5 8 - - - - 10 - - 22.3 1019.8 0.0
26/10:30am S 5 9 - - - - 10 - - 21.7 1020.2 0.0
26/10:00am WSW 3 7 - - - - 10 - - 20.8 1020.2 0.0
26/09:30am NW 3 5 - - - - 10 - - 19.1 1020.3 0.0
26/09:00am NW 2 4 - - - - 10 - - 17.3 1020.1 0.2
26/08:30am N 2 4 - - - - 10 - - 14.5 1019.9 0.2
26/08:00am N 4 4 - - - - 10 - - 12.9 1019.8 0.2
26/07:30am N 3 4 - - - - 10 - - 10.7 1019.6 0.2
26/07:00am N 3 4 - - - - 10 - - 9.6 1019.3 0.2
26/06:30am NW 3 4 - - - - 10 - - 9.7 1018.9 0.2
26/06:00am N 4 5 - - - - 10 - - 8.8 1018.9 0.2
26/05:30am N 3 4 - - - - 10 - - 9.8 1018.5 0.2
26/05:00am N 1 4 - - - - 10 - - 9.3 1018.3 0.2
26/04:30am N 2 3 - - - - 10 - - 9.6 1018.1 0.2
26/04:00am N 3 4 - - - - 10 - - 9.7 1018.1 0.2
26/03:49am N 3 4 - - - - 10 - - 9.9 1018.0 0.2
26/03:31am N 2 3 - - - - 5 - - 9.3 1017.9 0.2
26/03:30am N 2 3 - - - - 7 - - 9.2 1017.9 0.2
26/03:11am NNE 3 4 - - - - 10 - - 10.0 1017.9 0.2
26/03:00am NNE 3 3 - - - - 4 - - 10.0 1017.9 0.2
26/02:50am NNE 2 3 - - - - 5 - - 9.8 1017.9 0.2
26/02:37am N 2 3 - - - - 10 - - 10.0 1018.1 0.2
26/02:30am CALM 0 3 - - - - 10 - - 9.8 1018.2 0.2
26/02:11am CALM 0 2 - - - - 5 - - 9.7 1018.4 0.2
26/02:00am NNW 2 3 - - - - 10 - - 10.0 1018.3 0.2
26/01:30am N 4 5 - - - - 10 - - 9.5 1018.5 0.2
26/01:26am NNE 4 5 - - - - 10 - - 9.8 1018.5 0.2
26/01:00am NW 1 4 - - - - 2 - - 9.7 1018.6 0.2
26/12:56am NW 2 4 - - - - 5 - - 10.2 1018.7 0.2
26/12:30am CALM 0 0 - - - - 10 - - 11.0 1018.7 0.2
26/12:00am CALM 0 0 - - - - 10 - - 10.6 1018.8 0.2
 
Date/Time
EST
Wind Sea
Height
m
Swell Vis
km
Cloud Weather Temp
°C
Press
hPa
Rain since
9am
mm
Dir  Spd
kts
Gust
kts
Height
m
Period
s
Dir
25/11:30pm W 3 4 - - - - 10 - - 10.9 1019.0 0.2
25/11:00pm CALM 0 4 - - - - 10 - - 10.7 1019.0 0.2
25/10:30pm W 2 4 - - - - 10 - - 11.8 1019.2 0.2
25/10:00pm NW 3 4 - - - - 10 - - 10.7 1019.3 0.2
25/09:30pm SW 5 6 - - - - 10 - - 12.1 1019.2 0.2
25/09:00pm CALM 0 0 - - - - 10 - - 12.1 1019.2 0.2
25/08:30pm CALM 0 0 - - - - 10 - - 12.7 1019.1 0.2
25/08:00pm WSW 5 6 - - - - 10 - - 13.4 1018.5 0.2
25/07:30pm SW 7 8 - - - - 10 - - 14.3 1018.1 0.2
25/07:00pm WSW 3 4 - - - - 10 - - 14.6 1017.6 0.2
25/06:30pm SW 4 5 - - - - 10 - - 15.1 1017.2 0.2
25/06:00pm CALM 0 0 - - - - 10 - - 16.7 1017.0 0.2
25/05:30pm ESE 3 4 - - - - 10 - - 19.0 1016.6 0.2
25/05:00pm ESE 6 8 - - - - 10 - - 20.0 1016.4 0.2
25/04:30pm ESE 6 9 - - - - 10 - - 20.7 1016.1 0.2
25/04:00pm ESE 7 11 - - - - 10 - - 21.0 1015.9 0.2
25/03:30pm ESE 9 12 - - - - 10 - - 21.2 1015.8 0.2
25/03:00pm ESE 8 11 - - - - 10 - - 21.4 1015.7 0.2
25/02:30pm SE 7 12 - - - - 10 - - 21.5 1016.2 0.2
25/02:00pm ESE 9 16 - - - - 10 - - 21.8 1016.3 0.2
25/01:30pm E 8 13 - - - - 10 - - 22.0 1016.8 0.2
25/01:00pm ESE 5 9 - - - - 10 - - 22.4 1017.2 0.2
25/12:30pm SE 4 6 - - - - 10 - - 21.7 1017.7 0.2
25/12:00pm SW 4 6 - - - - 10 - Recent precip. 21.4 1018.1 0.2
25/11:30am ESE 5 9 - - - - 10 - - 21.1 1018.5 0.0
25/11:00am SSE 3 7 - - - - 10 - - 20.6 1019.1 0.0
25/10:30am S 7 9 - - - - 10 - - 20.0 1019.6 0.0
25/10:00am N 3 4 - - - - 10 - - 19.2 1019.8 0.0
25/09:30am W 2 4 - - - - 10 - - 17.8 1019.9 0.0
25/09:00am WNW 3 4 - - - - 10 - - 16.4 1019.8 0.0
25/08:30am CALM 0 0 - - - - 10 - - 15.1 1019.7 0.0
25/08:00am WNW 1 3 - - - - 10 - - 12.3 1019.2 0.0
25/07:30am CALM 0 0 - - - - 10 - - 10.4 1019.0 0.0
25/07:00am WSW 6 6 - - - - 10 - - 9.6 1018.6 0.0
25/06:30am W 5 7 - - - - 10 - - 8.4 1018.1 0.0
25/06:00am CALM 0 0 - - - - 10 - - 7.6 1017.7 0.0
25/05:30am CALM 0 0 - - - - 10 - - 7.9 1017.5 0.0
25/05:00am ENE 2 3 - - - - 10 - - 7.9 1017.0 0.0
25/04:30am NE 3 4 - - - - 10 - - 8.1 1017.0 0.0
25/04:00am W 3 4 - - - - 10 - - 8.1 1016.9 0.0
25/03:30am SW 5 6 - - - - 10 - - 8.1 1017.0 0.0
25/03:00am WSW 2 5 - - - - 10 - - 8.9 1017.0 0.0
25/02:30am N 4 5 - - - - 10 - - 8.3 1017.1 0.0
25/02:00am NW 3 5 - - - - 10 - - 8.9 1017.1 0.0
25/01:30am WSW 6 7 - - - - 10 - - 9.7 1017.3 0.0
25/01:00am SW 4 5 - - - - 10 - - 9.5 1017.2 0.0
25/12:30am CALM 0 3 - - - - 10 - - 9.0 1017.3 0.0
25/12:21am N 2 5 - - - - 10 - - 8.7 1017.2 0.0
25/12:00am NNW 4 6 - - - - 0.5 - - 8.8 1017.3 0.0
 
Date/Time
EST
Wind Sea
Height
m
Swell Vis
km
Cloud Weather Temp
°C
Press
hPa
Rain since
9am
mm
Dir  Spd
kts
Gust
kts
Height
m
Period
s
Dir
24/11:54pm WNW 1 5 - - - - 3 - - 9.2 1017.3 0.0
24/11:30pm WSW 3 4 - - - - 10 - - 10.2 1017.7 0.0
24/11:00pm SW 7 8 - - - - 10 - - 11.3 1017.6 0.0
24/10:30pm WSW 2 4 - - - - 10 - - 10.9 1017.9 0.0
24/10:00pm CALM 0 0 - - - - 10 - - 10.7 1017.5 0.0
24/09:30pm CALM 0 0 - - - - 10 - - 11.2 1017.8 0.0
24/09:00pm WSW 6 8 - - - - 10 - - 12.7 1017.3 0.0
24/08:30pm SW 6 7 - - - - 10 - - 12.1 1017.5 0.0
24/08:00pm WSW 7 8 - - - - 10 - - 13.0 1017.2 0.0
24/07:30pm SW 5 5 - - - - 10 - - 13.1 1016.7 0.0
24/07:00pm W 4 6 - - - - 10 - - 13.3 1016.4 0.0
24/06:30pm SW 2 4 - - - - 10 - - 14.4 1015.9 0.0
24/06:00pm CALM 0 0 - - - - 10 - - 16.0 1015.5 0.0
24/05:30pm SE 5 6 - - - - 10 - - 18.3 1015.2 0.0
24/05:00pm SE 7 10 - - - - 10 - - 19.6 1014.8 0.0
24/04:30pm SE 10 12 - - - - 10 - - 19.9 1014.6 0.0
24/04:00pm ESE 9 11 - - - - 10 - - 20.8 1014.1 0.0
24/03:30pm ESE 7 10 - - - - 10 - - 20.5 1014.0 0.0
24/03:00pm SE 6 8 - - - - 10 Partly cloudy - 21.1 1014.2 0.0
24/02:30pm S 5 8 - - - - 10 - - 21.1 1014.4 0.0
24/02:00pm SSE 5 8 - - - - 10 - - 21.2 1014.8 0.0
24/01:30pm S 4 8 - - - - 10 - - 20.9 1015.0 0.0
24/01:00pm S 7 10 - - - - 10 - - 20.8 1015.2 0.0
24/12:30pm S 8 11 - - - - 10 - - 19.9 1015.8 0.0
24/12:00pm S 5 8 - - - - 10 - - 19.3 1016.6 0.0
24/11:30am SSW 4 6 - - - - 10 - - 18.3 1017.1 0.0
24/11:00am SSW 4 6 - - - - 10 - - 17.5 1017.7 0.0
24/10:30am WSW 3 5 - - - - 10 - - 16.6 1018.1 0.0
24/10:00am WSW 4 6 - - - - 10 - - 15.6 1018.2 0.0
24/09:30am SW 5 8 - - - - 10 - - 15.2 1018.4 0.0
24/09:00am WSW 5 7 - - - - 10 Mostly cloudy - 14.0 1018.4 17.4
24/08:30am WSW 2 4 - - - - 10 - - 13.6 1018.0 17.4
24/08:00am WSW 6 8 - - - - 10 - - 13.3 1016.9 17.4
24/07:30am W 6 8 - - - - 10 Partly cloudy - 12.7 1017.2 17.4
24/07:00am WSW 6 7 - - - - 10 - - 12.0 1016.3 17.4
24/06:30am SSW 5 6 - - - - 10 - - 11.7 1016.9 17.4
24/06:00am W 5 7 - - - - 10 Cloudy - 12.7 1016.4 17.4
24/05:30am WSW 5 6 - - - - 10 - - 12.7 1016.3 17.4
24/05:00am WSW 3 5 - - - - 10 - - 13.0 1015.9 17.4
24/04:30am SW 4 5 - - - - 10 - - 13.2 1015.5 17.4
24/04:00am SW 2 4 - - - - 10 - - 13.6 1014.9 17.4
24/03:30am W 4 6 - - - - 10 Partly cloudy - 13.8 1015.6 17.4
24/03:00am SW 4 6 - - - - 10 Cloudy - 14.0 1015.5 17.4
24/02:30am S 6 7 - - - - 10 - - 14.1 1015.1 17.4
24/02:00am WSW 5 9 - - - - 10 - - 14.4 1015.1 17.4
24/01:30am S 3 4 - - - - 10 - - 14.8 1015.4 17.4
24/01:00am CALM 0 0 - - - - 10 Partly cloudy - 14.9 1015.9 17.4
24/12:30am SSE 4 5 - - - - 10 Partly cloudy - 15.0 1015.4 17.4
24/12:00am SE 1 4 - - - - 10 Cloudy Recent precip. 15.1 1015.2 17.4
 
Date/Time
EST
Wind Sea
Height
m
Swell Vis
km
Cloud Weather Temp
°C
Press
hPa
Rain since
9am
mm
Dir  Spd
kts
Gust
kts
Height
m
Period
s
Dir
23/11:30pm S 4 5 - - - - 10 Partly cloudy - 15.2 1015.9 17.2
23/11:00pm S 4 5 - - - - 10 Partly cloudy - 15.1 1015.7 17.2
23/10:30pm SE 3 6 - - - - 10 Partly cloudy - 15.2 1016.1 17.2
23/10:00pm SSE 4 5 - - - - 10 Cloudy - 15.2 1016.1 17.2
23/09:30pm SSE 6 7 - - - - 10 Partly cloudy - 15.3 1015.9 17.2
23/09:00pm S 5 6 - - - - 10 Cloudy Rain 15.4 1016.4 16.6
23/08:30pm SW 5 6 - - - - 10 Cloudy - 15.4 1016.2 16.0
23/08:00pm S 8 9 - - - - 10 Cloudy - 15.3 1015.2 16.0
23/07:30pm S 6 9 - - - - 10 Cloudy - 15.3 1014.3 15.8
23/07:00pm SSE 9 11 - - - - 10 Cloudy - 15.3 1014.7 15.2
23/06:30pm SSE 10 13 - - - - 10 Partly cloudy - 15.2 1014.4 14.4
23/06:00pm SSE 9 12 - - - - 10 Cloudy Rain 15.3 1014.5 13.6
23/05:47pm SSE 10 13 - - - - 10 Partly cloudy - 15.3 1014.3 13.2

Other formats

Comma delimited format used in spreadsheet applications
http://www.bom.gov.au/fwo/IDQ60701/IDQ60701.94280.axf

JavaScript Object Notation format (JSON) in row-major order
http://www.bom.gov.au/fwo/IDQ60701/IDQ60701.94280.json

Data quality

Most of these data are generated automatically and are frequently updated. Quality checks on data are not normally performed. It is possible for incorrect values to appear. Refer to information at About Latest Weather Observations and please check the disclaimer before using these data.